sensor_id;sensor_type;location;lat;lon;timestamp;P1;durP1;ratioP1;P2;durP2;ratioP2
76098;SDS011;64828;49.956;8.636;2023-08-21T00:00:01;9.05;;;6.68;;
76098;SDS011;64828;49.956;8.636;2023-08-21T00:00:19;11.48;;;6.80;;
76098;SDS011;64828;49.956;8.636;2023-08-21T00:00:34;9.90;;;6.53;;
76098;SDS011;64828;49.956;8.636;2023-08-21T00:00:50;9.65;;;6.80;;
76098;SDS011;64828;49.956;8.636;2023-08-21T00:01:05;10.10;;;7.07;;
76098;SDS011;64828;49.956;8.636;2023-08-21T00:01:21;9.43;;;6.68;;
76098;SDS011;64828;49.956;8.636;2023-08-21T00:01:36;9.93;;;6.40;;
76098;SDS011;64828;49.956;8.636;2023-08-21T00:01:52;10.48;;;6.68;;
76098;SDS011;64828;49.956;8.636;2023-08-21T00:02:07;10.43;;;6.70;;
76098;SDS011;64828;49.956;8.636;2023-08-21T00:02:23;10.73;;;6.32;;
76098;SDS011;64828;49.956;8.636;2023-08-21T00:02:40;9.05;;;6.32;;
76098;SDS011;64828;49.956;8.636;2023-08-21T00:02:56;9.48;;;6.70;;
76098;SDS011;64828;49.956;8.636;2023-08-21T00:03:11;10.03;;;6.73;;
76098;SDS011;64828;49.956;8.636;2023-08-21T00:03:27;11.02;;;6.65;;
76098;SDS011;64828;49.956;8.636;2023-08-21T00:03:42;10.87;;;6.60;;
76098;SDS011;64828;49.956;8.636;2023-08-21T00:03:58;9.63;;;6.83;;
76098;SDS011;64828;49.956;8.636;2023-08-21T00:04:13;9.95;;;6.80;;
76098;SDS011;64828;49.956;8.636;2023-08-21T00:04:29;8.97;;;6.37;;
76098;SDS011;64828;49.956;8.636;2023-08-21T00:04:44;8.70;;;6.30;;
76098;SDS011;64828;49.956;8.636;2023-08-21T00:05:00;9.83;;;6.73;;
76098;SDS011;64828;49.956;8.636;2023-08-21T00:05:15;9.88;;;7.10;;
76098;SDS011;64828;49.956;8.636;2023-08-21T00:05:31;8.53;;;6.67;;
76098;SDS011;64828;49.956;8.636;2023-08-21T00:05:46;8.90;;;6.35;;
76098;SDS011;64828;49.956;8.636;2023-08-21T00:06:02;10.27;;;6.80;;
76098;SDS011;64828;49.956;8.636;2023-08-21T00:06:17;10.05;;;6.60;;
76098;SDS011;64828;49.956;8.636;2023-08-21T00:06:33;9.30;;;6.40;;
76098;SDS011;64828;49.956;8.636;2023-08-21T00:06:49;8.65;;;6.45;;
76098;SDS011;64828;49.956;8.636;2023-08-21T00:07:04;9.00;;;6.60;;
76098;SDS011;64828;49.956;8.636;2023-08-21T00:07:21;10.05;;;6.95;;
76098;SDS011;64828;49.956;8.636;2023-08-21T00:07:37;9.40;;;7.10;;
76098;SDS011;64828;49.956;8.636;2023-08-21T00:07:53;9.50;;;7.18;;
76098;SDS011;64828;49.956;8.636;2023-08-21T00:08:08;8.77;;;6.53;;
76098;SDS011;64828;49.956;8.636;2023-08-21T00:08:24;9.52;;;6.70;;
76098;SDS011;64828;49.956;8.636;2023-08-21T00:08:39;10.33;;;6.93;;
76098;SDS011;64828;49.956;8.636;2023-08-21T00:08:55;9.90;;;6.72;;
76098;SDS011;64828;49.956;8.636;2023-08-21T00:09:10;9.70;;;6.87;;
76098;SDS011;64828;49.956;8.636;2023-08-21T00:09:26;9.93;;;6.70;;
76098;SDS011;64828;49.956;8.636;2023-08-21T00:09:41;9.93;;;6.50;;
76098;SDS011;64828;49.956;8.636;2023-08-21T00:09:57;10.50;;;6.65;;
76098;SDS011;64828;49.956;8.636;2023-08-21T00:10:12;9.97;;;6.87;;
76098;SDS011;64828;49.956;8.636;2023-08-21T00:10:29;8.68;;;6.35;;
76098;SDS011;64828;49.956;8.636;2023-08-21T00:10:45;8.82;;;6.10;;
76098;SDS011;64828;49.956;8.636;2023-08-21T00:11:01;9.32;;;6.45;;
76098;SDS011;64828;49.956;8.636;2023-08-21T00:11:17;10.10;;;6.47;;
76098;SDS011;64828;49.956;8.636;2023-08-21T00:11:32;10.43;;;6.68;;
76098;SDS011;64828;49.956;8.636;2023-08-21T00:11:48;9.40;;;6.40;;
76098;SDS011;64828;49.956;8.636;2023-08-21T00:12:03;8.03;;;6.20;;
76098;SDS011;64828;49.956;8.636;2023-08-21T00:12:19;8.18;;;6.57;;
76098;SDS011;64828;49.956;8.636;2023-08-21T00:12:35;8.27;;;6.57;;
76098;SDS011;64828;49.956;8.636;2023-08-21T00:12:50;9.17;;;6.70;;
76098;SDS011;64828;49.956;8.636;2023-08-21T00:13:06;10.25;;;6.82;;
76098;SDS011;64828;49.956;8.636;2023-08-21T00:13:22;9.85;;;6.63;;
76098;SDS011;64828;49.956;8.636;2023-08-21T00:13:37;9.18;;;6.18;;
76098;SDS011;64828;49.956;8.636;2023-08-21T00:13:53;10.07;;;6.43;;
76098;SDS011;64828;49.956;8.636;2023-08-21T00:14:08;10.40;;;6.93;;
76098;SDS011;64828;49.956;8.636;2023-08-21T00:14:24;11.47;;;6.80;;
76098;SDS011;64828;49.956;8.636;2023-08-21T00:14:39;11.40;;;6.70;;
76098;SDS011;64828;49.956;8.636;2023-08-21T00:14:55;9.50;;;6.60;;
76098;SDS011;64828;49.956;8.636;2023-08-21T00:15:10;9.63;;;6.50;;
76098;SDS011;64828;49.956;8.636;2023-08-21T00:15:26;9.57;;;6.60;;
76098;SDS011;64828;49.956;8.636;2023-08-21T00:15:41;10.18;;;6.72;;
76098;SDS011;64828;49.956;8.636;2023-08-21T00:15:57;10.17;;;6.97;;
76098;SDS011;64828;49.956;8.636;2023-08-21T00:16:12;8.40;;;6.40;;
76098;SDS011;64828;49.956;8.636;2023-08-21T00:16:28;8.47;;;6.33;;
76098;SDS011;64828;49.956;8.636;2023-08-21T00:16:44;9.30;;;6.80;;
76098;SDS011;64828;49.956;8.636;2023-08-21T00:16:59;8.87;;;6.67;;
76098;SDS011;64828;49.956;8.636;2023-08-21T00:17:15;9.10;;;6.50;;
76098;SDS011;64828;49.956;8.636;2023-08-21T00:17:30;9.60;;;6.60;;
76098;SDS011;64828;49.956;8.636;2023-08-21T00:17:46;10.18;;;7.03;;
76098;SDS011;64828;49.956;8.636;2023-08-21T00:18:02;9.70;;;6.82;;
76098;SDS011;64828;49.956;8.636;2023-08-21T00:18:17;10.03;;;6.73;;
76098;SDS011;64828;49.956;8.636;2023-08-21T00:18:33;12.15;;;6.95;;
76098;SDS011;64828;49.956;8.636;2023-08-21T00:18:48;10.13;;;6.70;;
76098;SDS011;64828;49.956;8.636;2023-08-21T00:19:04;8.20;;;6.60;;
76098;SDS011;64828;49.956;8.636;2023-08-21T00:19:19;9.73;;;6.70;;
76098;SDS011;64828;49.956;8.636;2023-08-21T00:19:35;9.68;;;6.85;;
76098;SDS011;64828;49.956;8.636;2023-08-21T00:19:50;9.10;;;7.00;;
76098;SDS011;64828;49.956;8.636;2023-08-21T00:20:06;10.50;;;7.07;;
76098;SDS011;64828;49.956;8.636;2023-08-21T00:20:24;10.70;;;7.13;;
76098;SDS011;64828;49.956;8.636;2023-08-21T00:20:39;8.60;;;6.87;;
76098;SDS011;64828;49.956;8.636;2023-08-21T00:20:56;7.88;;;6.78;;
76098;SDS011;64828;49.956;8.636;2023-08-21T00:21:12;9.13;;;7.03;;
76098;SDS011;64828;49.956;8.636;2023-08-21T00:21:27;10.73;;;6.97;;
76098;SDS011;64828;49.956;8.636;2023-08-21T00:21:44;10.70;;;6.85;;
76098;SDS011;64828;49.956;8.636;2023-08-21T00:21:59;9.63;;;6.60;;
76098;SDS011;64828;49.956;8.636;2023-08-21T00:22:15;8.45;;;6.68;;
76098;SDS011;64828;49.956;8.636;2023-08-21T00:22:31;8.90;;;7.17;;
76098;SDS011;64828;49.956;8.636;2023-08-21T00:22:46;9.63;;;7.25;;
76098;SDS011;64828;49.956;8.636;2023-08-21T00:23:02;9.77;;;7.00;;
76098;SDS011;64828;49.956;8.636;2023-08-21T00:23:18;9.73;;;7.18;;
76098;SDS011;64828;49.956;8.636;2023-08-21T00:23:33;10.65;;;7.18;;
76098;SDS011;64828;49.956;8.636;2023-08-21T00:23:49;9.43;;;6.87;;
76098;SDS011;64828;49.956;8.636;2023-08-21T00:24:04;8.95;;;6.85;;
76098;SDS011;64828;49.956;8.636;2023-08-21T00:24:20;10.10;;;6.77;;
76098;SDS011;64828;49.956;8.636;2023-08-21T00:24:36;9.68;;;6.50;;
76098;SDS011;64828;49.956;8.636;2023-08-21T00:24:51;11.10;;;6.85;;
76098;SDS011;64828;49.956;8.636;2023-08-21T00:25:07;11.57;;;7.43;;
76098;SDS011;64828;49.956;8.636;2023-08-21T00:25:22;9.90;;;7.57;;
76098;SDS011;64828;49.956;8.636;2023-08-21T00:25:38;9.83;;;7.37;;
76098;SDS011;64828;49.956;8.636;2023-08-21T00:25:54;10.10;;;7.18;;
76098;SDS011;64828;49.956;8.636;2023-08-21T00:26:09;10.85;;;6.93;;
76098;SDS011;64828;49.956;8.636;2023-08-21T00:26:25;10.13;;;6.87;;
76098;SDS011;64828;49.956;8.636;2023-08-21T00:26:40;9.95;;;7.03;;
76098;SDS011;64828;49.956;8.636;2023-08-21T00:26:56;9.75;;;7.07;;
76098;SDS011;64828;49.956;8.636;2023-08-21T00:27:11;8.77;;;7.20;;
76098;SDS011;64828;49.956;8.636;2023-08-21T00:27:27;8.55;;;7.13;;
76098;SDS011;64828;49.956;8.636;2023-08-21T00:27:42;8.67;;;7.03;;
76098;SDS011;64828;49.956;8.636;2023-08-21T00:27:58;9.52;;;7.35;;
76098;SDS011;64828;49.956;8.636;2023-08-21T00:28:14;9.47;;;7.50;;
76098;SDS011;64828;49.956;8.636;2023-08-21T00:28:29;9.40;;;7.35;;
76098;SDS011;64828;49.956;8.636;2023-08-21T00:28:48;10.10;;;7.07;;
76098;SDS011;64828;49.956;8.636;2023-08-21T00:29:03;9.93;;;6.80;;
76098;SDS011;64828;49.956;8.636;2023-08-21T00:29:19;10.70;;;6.93;;
76098;SDS011;64828;49.956;8.636;2023-08-21T00:29:35;10.70;;;7.00;;
76098;SDS011;64828;49.956;8.636;2023-08-21T00:29:51;10.10;;;6.90;;
76098;SDS011;64828;49.956;8.636;2023-08-21T00:30:06;10.43;;;7.03;;
76098;SDS011;64828;49.956;8.636;2023-08-21T00:30:22;9.88;;;7.18;;
76098;SDS011;64828;49.956;8.636;2023-08-21T00:30:38;9.45;;;7.30;;
76098;SDS011;64828;49.956;8.636;2023-08-21T00:30:59;10.30;;;7.40;;
76098;SDS011;64828;49.956;8.636;2023-08-21T00:31:16;10.93;;;7.05;;
76098;SDS011;64828;49.956;8.636;2023-08-21T00:31:31;9.07;;;6.73;;
76098;SDS011;64828;49.956;8.636;2023-08-21T00:31:47;8.48;;;7.03;;
76098;SDS011;64828;49.956;8.636;2023-08-21T00:32:02;10.50;;;7.40;;
76098;SDS011;64828;49.956;8.636;2023-08-21T00:32:18;11.60;;;7.15;;
76098;SDS011;64828;49.956;8.636;2023-08-21T00:32:34;9.80;;;6.83;;
76098;SDS011;64828;49.956;8.636;2023-08-21T00:32:50;9.53;;;7.03;;
76098;SDS011;64828;49.956;8.636;2023-08-21T00:33:05;11.10;;;7.38;;
76098;SDS011;64828;49.956;8.636;2023-08-21T00:33:21;10.13;;;7.30;;
76098;SDS011;64828;49.956;8.636;2023-08-21T00:33:36;9.57;;;7.60;;
76098;SDS011;64828;49.956;8.636;2023-08-21T00:33:52;10.10;;;7.47;;
76098;SDS011;64828;49.956;8.636;2023-08-21T00:34:07;9.55;;;6.85;;
76098;SDS011;64828;49.956;8.636;2023-08-21T00:34:23;9.03;;;6.87;;
76098;SDS011;64828;49.956;8.636;2023-08-21T00:34:38;9.00;;;7.03;;
76098;SDS011;64828;49.956;8.636;2023-08-21T00:34:54;8.47;;;6.93;;
76098;SDS011;64828;49.956;8.636;2023-08-21T00:35:09;8.27;;;6.90;;
76098;SDS011;64828;49.956;8.636;2023-08-21T00:35:25;9.43;;;6.95;;
76098;SDS011;64828;49.956;8.636;2023-08-21T00:35:44;10.20;;;7.10;;
76098;SDS011;64828;49.956;8.636;2023-08-21T00:35:59;9.75;;;7.15;;
76098;SDS011;64828;49.956;8.636;2023-08-21T00:36:15;9.47;;;7.40;;
76098;SDS011;64828;49.956;8.636;2023-08-21T00:36:31;9.95;;;7.25;;
76098;SDS011;64828;49.956;8.636;2023-08-21T00:36:46;10.27;;;6.80;;
76098;SDS011;64828;49.956;8.636;2023-08-21T00:37:02;9.13;;;6.88;;
76098;SDS011;64828;49.956;8.636;2023-08-21T00:37:17;9.30;;;6.93;;
76098;SDS011;64828;49.956;8.636;2023-08-21T00:37:34;10.52;;;6.95;;
76098;SDS011;64828;49.956;8.636;2023-08-21T00:37:50;10.77;;;7.13;;
76098;SDS011;64828;49.956;8.636;2023-08-21T00:38:05;12.17;;;7.57;;
76098;SDS011;64828;49.956;8.636;2023-08-21T00:38:21;10.82;;;7.32;;
76098;SDS011;64828;49.956;8.636;2023-08-21T00:38:36;9.57;;;7.10;;
76098;SDS011;64828;49.956;8.636;2023-08-21T00:38:53;9.98;;;7.35;;
76098;SDS011;64828;49.956;8.636;2023-08-21T00:39:08;8.88;;;6.95;;
76098;SDS011;64828;49.956;8.636;2023-08-21T00:39:24;8.18;;;6.72;;
76098;SDS011;64828;49.956;8.636;2023-08-21T00:39:39;11.20;;;7.33;;
76098;SDS011;64828;49.956;8.636;2023-08-21T00:39:55;11.00;;;7.35;;
76098;SDS011;64828;49.956;8.636;2023-08-21T00:40:10;9.83;;;7.23;;
76098;SDS011;64828;49.956;8.636;2023-08-21T00:40:26;9.93;;;7.22;;
76098;SDS011;64828;49.956;8.636;2023-08-21T00:40:42;9.60;;;7.23;;
76098;SDS011;64828;49.956;8.636;2023-08-21T00:40:57;9.63;;;7.25;;
76098;SDS011;64828;49.956;8.636;2023-08-21T00:41:13;9.20;;;6.90;;
76098;SDS011;64828;49.956;8.636;2023-08-21T00:41:28;8.43;;;6.93;;
76098;SDS011;64828;49.956;8.636;2023-08-21T00:41:44;8.70;;;7.10;;
76098;SDS011;64828;49.956;8.636;2023-08-21T00:41:59;9.80;;;6.93;;
76098;SDS011;64828;49.956;8.636;2023-08-21T00:42:15;9.83;;;7.00;;
76098;SDS011;64828;49.956;8.636;2023-08-21T00:42:31;8.95;;;6.97;;
76098;SDS011;64828;49.956;8.636;2023-08-21T00:42:46;10.60;;;7.45;;
76098;SDS011;64828;49.956;8.636;2023-08-21T00:43:02;9.97;;;7.17;;
76098;SDS011;64828;49.956;8.636;2023-08-21T00:43:19;8.93;;;6.63;;
76098;SDS011;64828;49.956;8.636;2023-08-21T00:43:35;8.82;;;6.93;;
76098;SDS011;64828;49.956;8.636;2023-08-21T00:43:50;9.50;;;7.10;;
76098;SDS011;64828;49.956;8.636;2023-08-21T00:44:06;9.67;;;6.97;;
76098;SDS011;64828;49.956;8.636;2023-08-21T00:44:21;10.02;;;6.78;;
76098;SDS011;64828;49.956;8.636;2023-08-21T00:44:37;9.87;;;6.90;;
76098;SDS011;64828;49.956;8.636;2023-08-21T00:44:52;8.80;;;7.25;;
76098;SDS011;64828;49.956;8.636;2023-08-21T00:45:08;9.73;;;7.43;;
76098;SDS011;64828;49.956;8.636;2023-08-21T00:45:24;10.93;;;7.43;;
76098;SDS011;64828;49.956;8.636;2023-08-21T00:45:41;10.40;;;7.00;;
76098;SDS011;64828;49.956;8.636;2023-08-21T00:45:58;10.52;;;6.68;;
76098;SDS011;64828;49.956;8.636;2023-08-21T00:46:14;13.80;;;7.27;;
76098;SDS011;64828;49.956;8.636;2023-08-21T00:46:32;10.07;;;7.07;;
76098;SDS011;64828;49.956;8.636;2023-08-21T00:46:48;8.02;;;6.78;;
76098;SDS011;64828;49.956;8.636;2023-08-21T00:47:03;9.90;;;7.10;;
76098;SDS011;64828;49.956;8.636;2023-08-21T00:47:19;10.70;;;7.22;;
76098;SDS011;64828;49.956;8.636;2023-08-21T00:47:35;9.47;;;7.23;;
76098;SDS011;64828;49.956;8.636;2023-08-21T00:47:51;9.48;;;7.60;;
76098;SDS011;64828;49.956;8.636;2023-08-21T00:48:07;9.50;;;7.67;;
76098;SDS011;64828;49.956;8.636;2023-08-21T00:48:23;10.00;;;7.47;;
76098;SDS011;64828;49.956;8.636;2023-08-21T00:48:39;9.32;;;6.93;;
76098;SDS011;64828;49.956;8.636;2023-08-21T00:48:54;9.90;;;6.90;;
76098;SDS011;64828;49.956;8.636;2023-08-21T00:49:10;11.57;;;7.38;;
76098;SDS011;64828;49.956;8.636;2023-08-21T00:49:26;10.40;;;7.25;;
76098;SDS011;64828;49.956;8.636;2023-08-21T00:49:42;9.80;;;6.95;;
76098;SDS011;64828;49.956;8.636;2023-08-21T00:49:58;10.25;;;7.13;;
76098;SDS011;64828;49.956;8.636;2023-08-21T00:50:14;10.20;;;7.30;;
76098;SDS011;64828;49.956;8.636;2023-08-21T00:50:30;9.35;;;7.03;;
76098;SDS011;64828;49.956;8.636;2023-08-21T00:50:45;9.20;;;7.13;;
76098;SDS011;64828;49.956;8.636;2023-08-21T00:51:01;9.68;;;7.20;;
76098;SDS011;64828;49.956;8.636;2023-08-21T00:51:18;8.80;;;7.15;;
76098;SDS011;64828;49.956;8.636;2023-08-21T00:51:34;9.73;;;7.43;;
76098;SDS011;64828;49.956;8.636;2023-08-21T00:51:50;9.77;;;7.50;;
76098;SDS011;64828;49.956;8.636;2023-08-21T00:52:07;9.15;;;7.35;;
76098;SDS011;64828;49.956;8.636;2023-08-21T00:52:25;10.20;;;7.15;;
76098;SDS011;64828;49.956;8.636;2023-08-21T00:52:43;9.73;;;7.22;;
76098;SDS011;64828;49.956;8.636;2023-08-21T00:53:01;9.27;;;7.35;;
76098;SDS011;64828;49.956;8.636;2023-08-21T00:53:18;9.85;;;7.47;;
76098;SDS011;64828;49.956;8.636;2023-08-21T00:53:34;9.68;;;7.40;;
76098;SDS011;64828;49.956;8.636;2023-08-21T00:53:49;9.15;;;7.55;;
76098;SDS011;64828;49.956;8.636;2023-08-21T00:54:05;8.67;;;7.40;;
76098;SDS011;64828;49.956;8.636;2023-08-21T00:54:21;9.55;;;7.25;;
76098;SDS011;64828;49.956;8.636;2023-08-21T00:54:37;9.88;;;7.35;;
76098;SDS011;64828;49.956;8.636;2023-08-21T00:54:52;10.88;;;7.53;;
76098;SDS011;64828;49.956;8.636;2023-08-21T00:55:09;11.40;;;7.47;;
76098;SDS011;64828;49.956;8.636;2023-08-21T00:55:24;9.43;;;7.07;;
76098;SDS011;64828;49.956;8.636;2023-08-21T00:55:40;9.87;;;7.43;;
76098;SDS011;64828;49.956;8.636;2023-08-21T00:55:57;10.75;;;7.60;;
76098;SDS011;64828;49.956;8.636;2023-08-21T00:56:13;10.00;;;7.65;;
76098;SDS011;64828;49.956;8.636;2023-08-21T00:56:29;9.50;;;7.55;;
76098;SDS011;64828;49.956;8.636;2023-08-21T00:56:45;9.73;;;7.18;;
76098;SDS011;64828;49.956;8.636;2023-08-21T00:57:01;9.73;;;7.30;;
76098;SDS011;64828;49.956;8.636;2023-08-21T00:57:17;9.80;;;7.55;;
76098;SDS011;64828;49.956;8.636;2023-08-21T00:57:34;11.20;;;7.43;;
76098;SDS011;64828;49.956;8.636;2023-08-21T00:57:50;10.32;;;7.20;;
76098;SDS011;64828;49.956;8.636;2023-08-21T00:58:06;9.57;;;7.40;;
76098;SDS011;64828;49.956;8.636;2023-08-21T00:58:27;9.43;;;7.30;;
76098;SDS011;64828;49.956;8.636;2023-08-21T00:58:43;10.02;;;7.70;;
76098;SDS011;64828;49.956;8.636;2023-08-21T00:58:59;11.43;;;7.97;;
76098;SDS011;64828;49.956;8.636;2023-08-21T00:59:14;12.23;;;7.68;;
76098;SDS011;64828;49.956;8.636;2023-08-21T00:59:30;10.40;;;7.60;;
76098;SDS011;64828;49.956;8.636;2023-08-21T00:59:46;9.60;;;7.85;;
76098;SDS011;64828;49.956;8.636;2023-08-21T01:00:02;9.57;;;7.63;;
76098;SDS011;64828;49.956;8.636;2023-08-21T01:00:19;9.70;;;7.63;;
76098;SDS011;64828;49.956;8.636;2023-08-21T01:00:35;11.47;;;7.83;;
76098;SDS011;64828;49.956;8.636;2023-08-21T01:00:51;10.55;;;7.78;;
76098;SDS011;64828;49.956;8.636;2023-08-21T01:01:07;8.32;;;7.25;;
76098;SDS011;64828;49.956;8.636;2023-08-21T01:01:24;9.37;;;7.20;;
76098;SDS011;64828;49.956;8.636;2023-08-21T01:01:42;10.23;;;7.85;;
76098;SDS011;64828;49.956;8.636;2023-08-21T01:01:58;10.23;;;7.77;;
76098;SDS011;64828;49.956;8.636;2023-08-21T01:02:14;11.07;;;7.95;;
76098;SDS011;64828;49.956;8.636;2023-08-21T01:02:29;10.30;;;7.93;;
76098;SDS011;64828;49.956;8.636;2023-08-21T01:02:45;10.80;;;8.02;;
76098;SDS011;64828;49.956;8.636;2023-08-21T01:03:00;12.53;;;8.20;;
76098;SDS011;64828;49.956;8.636;2023-08-21T01:03:16;11.55;;;7.57;;
76098;SDS011;64828;49.956;8.636;2023-08-21T01:03:31;11.00;;;7.80;;
76098;SDS011;64828;49.956;8.636;2023-08-21T01:03:47;11.00;;;7.97;;
76098;SDS011;64828;49.956;8.636;2023-08-21T01:04:03;10.00;;;7.55;;
76098;SDS011;64828;49.956;8.636;2023-08-21T01:04:19;11.10;;;7.65;;
76098;SDS011;64828;49.956;8.636;2023-08-21T01:04:34;12.13;;;8.00;;
76098;SDS011;64828;49.956;8.636;2023-08-21T01:04:50;11.30;;;7.85;;
76098;SDS011;64828;49.956;8.636;2023-08-21T01:05:07;10.70;;;7.67;;
76098;SDS011;64828;49.956;8.636;2023-08-21T01:05:23;10.68;;;7.90;;
76098;SDS011;64828;49.956;8.636;2023-08-21T01:05:39;10.98;;;8.20;;
76098;SDS011;64828;49.956;8.636;2023-08-21T01:05:54;11.73;;;8.30;;
76098;SDS011;64828;49.956;8.636;2023-08-21T01:06:10;11.57;;;8.07;;
76098;SDS011;64828;49.956;8.636;2023-08-21T01:06:26;10.73;;;7.82;;
76098;SDS011;64828;49.956;8.636;2023-08-21T01:06:42;11.47;;;8.10;;
76098;SDS011;64828;49.956;8.636;2023-08-21T01:06:57;10.98;;;8.23;;
76098;SDS011;64828;49.956;8.636;2023-08-21T01:07:13;10.10;;;8.30;;
76098;SDS011;64828;49.956;8.636;2023-08-21T01:07:30;9.90;;;7.97;;
76098;SDS011;64828;49.956;8.636;2023-08-21T01:07:58;10.48;;;7.90;;
76098;SDS011;64828;49.956;8.636;2023-08-21T01:08:26;11.13;;;7.82;;
76098;SDS011;64828;49.956;8.636;2023-08-21T01:09:11;10.55;;;7.70;;
76098;SDS011;64828;49.956;8.636;2023-08-21T01:10:01;9.73;;;7.78;;
76098;SDS011;64828;49.956;8.636;2023-08-21T01:10:27;10.45;;;7.38;;
76098;SDS011;64828;49.956;8.636;2023-08-21T01:10:50;10.15;;;7.85;;
76098;SDS011;64828;49.956;8.636;2023-08-21T01:11:25;9.18;;;7.60;;
76098;SDS011;64828;49.956;8.636;2023-08-21T01:11:54;11.85;;;8.07;;
76098;SDS011;64828;49.956;8.636;2023-08-21T01:12:23;10.48;;;7.50;;
76098;SDS011;64828;49.956;8.636;2023-08-21T01:12:50;10.25;;;7.78;;
76098;SDS011;64828;49.956;8.636;2023-08-21T01:13:29;10.90;;;7.53;;
76098;SDS011;64828;49.956;8.636;2023-08-21T01:14:26;12.50;;;7.93;;
76098;SDS011;64828;49.956;8.636;2023-08-21T01:14:54;10.73;;;7.45;;
76098;SDS011;64828;49.956;8.636;2023-08-21T01:15:14;10.77;;;7.30;;
76098;SDS011;64828;49.956;8.636;2023-08-21T01:15:30;9.93;;;7.30;;
76098;SDS011;64828;49.956;8.636;2023-08-21T01:15:46;9.07;;;7.47;;
76098;SDS011;64828;49.956;8.636;2023-08-21T01:16:04;11.38;;;7.70;;
76098;SDS011;64828;49.956;8.636;2023-08-21T01:16:23;12.73;;;7.60;;
76098;SDS011;64828;49.956;8.636;2023-08-21T01:16:39;12.68;;;7.68;;
76098;SDS011;64828;49.956;8.636;2023-08-21T01:16:58;11.65;;;7.90;;
76098;SDS011;64828;49.956;8.636;2023-08-21T01:17:16;10.88;;;7.60;;
76098;SDS011;64828;49.956;8.636;2023-08-21T01:17:33;11.50;;;7.53;;
76098;SDS011;64828;49.956;8.636;2023-08-21T01:17:50;11.20;;;7.60;;
76098;SDS011;64828;49.956;8.636;2023-08-21T01:18:06;13.07;;;8.02;;
76098;SDS011;64828;49.956;8.636;2023-08-21T01:18:24;12.57;;;8.30;;
76098;SDS011;64828;49.956;8.636;2023-08-21T01:18:43;10.18;;;8.02;;
76098;SDS011;64828;49.956;8.636;2023-08-21T01:19:02;10.15;;;7.93;;
76098;SDS011;64828;49.956;8.636;2023-08-21T01:19:31;10.57;;;8.02;;
76098;SDS011;64828;49.956;8.636;2023-08-21T01:19:51;10.38;;;7.82;;
76098;SDS011;64828;49.956;8.636;2023-08-21T01:20:08;11.13;;;8.48;;
76098;SDS011;64828;49.956;8.636;2023-08-21T01:20:24;11.13;;;8.25;;
76098;SDS011;64828;49.956;8.636;2023-08-21T01:20:40;9.93;;;7.40;;
76098;SDS011;64828;49.956;8.636;2023-08-21T01:20:56;10.73;;;7.97;;
76098;SDS011;64828;49.956;8.636;2023-08-21T01:21:13;10.60;;;8.05;;
76098;SDS011;64828;49.956;8.636;2023-08-21T01:21:29;9.77;;;7.88;;
76098;SDS011;64828;49.956;8.636;2023-08-21T01:21:44;11.82;;;8.32;;
76098;SDS011;64828;49.956;8.636;2023-08-21T01:22:00;12.83;;;8.33;;
76098;SDS011;64828;49.956;8.636;2023-08-21T01:22:16;11.52;;;8.25;;
76098;SDS011;64828;49.956;8.636;2023-08-21T01:22:35;10.70;;;8.03;;
76098;SDS011;64828;49.956;8.636;2023-08-21T01:22:51;10.65;;;7.88;;
76098;SDS011;64828;49.956;8.636;2023-08-21T01:23:07;12.60;;;8.03;;
76098;SDS011;64828;49.956;8.636;2023-08-21T01:23:32;12.13;;;8.05;;
76098;SDS011;64828;49.956;8.636;2023-08-21T01:23:48;12.30;;;7.88;;
76098;SDS011;64828;49.956;8.636;2023-08-21T01:24:03;12.10;;;8.43;;
76098;SDS011;64828;49.956;8.636;2023-08-21T01:24:19;11.82;;;8.68;;
76098;SDS011;64828;49.956;8.636;2023-08-21T01:24:35;11.48;;;8.15;;
76098;SDS011;64828;49.956;8.636;2023-08-21T01:24:51;11.40;;;8.20;;
76098;SDS011;64828;49.956;8.636;2023-08-21T01:25:06;11.80;;;8.07;;
76098;SDS011;64828;49.956;8.636;2023-08-21T01:25:23;11.30;;;7.90;;
76098;SDS011;64828;49.956;8.636;2023-08-21T01:25:39;10.80;;;7.88;;
76098;SDS011;64828;49.956;8.636;2023-08-21T01:25:54;11.30;;;7.80;;
76098;SDS011;64828;49.956;8.636;2023-08-21T01:26:10;11.55;;;7.93;;
76098;SDS011;64828;49.956;8.636;2023-08-21T01:26:26;13.00;;;8.27;;
76098;SDS011;64828;49.956;8.636;2023-08-21T01:26:41;11.30;;;7.93;;
76098;SDS011;64828;49.956;8.636;2023-08-21T01:26:57;10.27;;;7.97;;
76098;SDS011;64828;49.956;8.636;2023-08-21T01:27:12;10.77;;;8.27;;
76098;SDS011;64828;49.956;8.636;2023-08-21T01:27:30;10.10;;;7.85;;
76098;SDS011;64828;49.956;8.636;2023-08-21T01:27:46;10.85;;;7.93;;
76098;SDS011;64828;49.956;8.636;2023-08-21T01:28:05;11.57;;;8.32;;
76098;SDS011;64828;49.956;8.636;2023-08-21T01:28:20;10.75;;;8.07;;
76098;SDS011;64828;49.956;8.636;2023-08-21T01:28:36;10.43;;;8.18;;
76098;SDS011;64828;49.956;8.636;2023-08-21T01:28:52;10.88;;;8.02;;
76098;SDS011;64828;49.956;8.636;2023-08-21T01:29:08;12.50;;;8.10;;
76098;SDS011;64828;49.956;8.636;2023-08-21T01:29:23;12.43;;;8.20;;
76098;SDS011;64828;49.956;8.636;2023-08-21T01:29:39;11.00;;;8.27;;
76098;SDS011;64828;49.956;8.636;2023-08-21T01:29:54;11.23;;;8.10;;
76098;SDS011;64828;49.956;8.636;2023-08-21T01:30:10;11.83;;;7.83;;
76098;SDS011;64828;49.956;8.636;2023-08-21T01:30:27;11.65;;;8.00;;
76098;SDS011;64828;49.956;8.636;2023-08-21T01:30:45;11.07;;;8.05;;
76098;SDS011;64828;49.956;8.636;2023-08-21T01:31:28;11.85;;;8.38;;
76098;SDS011;64828;49.956;8.636;2023-08-21T01:32:31;12.35;;;8.27;;
76098;SDS011;64828;49.956;8.636;2023-08-21T01:33:10;9.73;;;7.70;;
76098;SDS011;64828;49.956;8.636;2023-08-21T01:33:30;11.90;;;8.10;;
76098;SDS011;64828;49.956;8.636;2023-08-21T01:33:57;11.73;;;8.35;;
76098;SDS011;64828;49.956;8.636;2023-08-21T01:34:16;12.93;;;8.57;;
76098;SDS011;64828;49.956;8.636;2023-08-21T01:34:32;13.90;;;9.23;;
76098;SDS011;64828;49.956;8.636;2023-08-21T01:34:49;11.88;;;9.15;;
76098;SDS011;64828;49.956;8.636;2023-08-21T01:35:07;11.75;;;9.02;;
76098;SDS011;64828;49.956;8.636;2023-08-21T01:35:26;11.07;;;8.73;;
76098;SDS011;64828;49.956;8.636;2023-08-21T01:35:43;10.93;;;8.48;;
76098;SDS011;64828;49.956;8.636;2023-08-21T01:35:59;11.40;;;8.30;;
76098;SDS011;64828;49.956;8.636;2023-08-21T01:36:19;11.35;;;8.45;;
76098;SDS011;64828;49.956;8.636;2023-08-21T01:36:35;11.13;;;8.45;;
76098;SDS011;64828;49.956;8.636;2023-08-21T01:36:51;10.93;;;8.40;;
76098;SDS011;64828;49.956;8.636;2023-08-21T01:37:07;11.98;;;8.57;;
76098;SDS011;64828;49.956;8.636;2023-08-21T01:37:24;11.68;;;8.57;;
76098;SDS011;64828;49.956;8.636;2023-08-21T01:37:40;11.43;;;8.57;;
76098;SDS011;64828;49.956;8.636;2023-08-21T01:37:57;12.35;;;8.55;;
76098;SDS011;64828;49.956;8.636;2023-08-21T01:38:13;11.93;;;8.05;;
76098;SDS011;64828;49.956;8.636;2023-08-21T01:38:29;11.95;;;8.20;;
76098;SDS011;64828;49.956;8.636;2023-08-21T01:38:48;12.00;;;8.60;;
76098;SDS011;64828;49.956;8.636;2023-08-21T01:39:04;10.27;;;8.55;;
76098;SDS011;64828;49.956;8.636;2023-08-21T01:39:20;12.77;;;8.70;;
76098;SDS011;64828;49.956;8.636;2023-08-21T01:39:37;14.10;;;8.55;;
76098;SDS011;64828;49.956;8.636;2023-08-21T01:39:52;12.88;;;8.40;;
76098;SDS011;64828;49.956;8.636;2023-08-21T01:40:08;12.13;;;8.67;;
76098;SDS011;64828;49.956;8.636;2023-08-21T01:40:24;11.77;;;8.70;;
76098;SDS011;64828;49.956;8.636;2023-08-21T01:40:40;11.43;;;8.40;;
76098;SDS011;64828;49.956;8.636;2023-08-21T01:40:55;10.65;;;8.20;;
76098;SDS011;64828;49.956;8.636;2023-08-21T01:41:11;10.07;;;7.90;;
76098;SDS011;64828;49.956;8.636;2023-08-21T01:41:27;9.68;;;8.07;;
76098;SDS011;64828;49.956;8.636;2023-08-21T01:41:42;9.90;;;8.27;;
76098;SDS011;64828;49.956;8.636;2023-08-21T01:41:58;10.77;;;8.02;;